sensor_id;sensor_type;location;lat;lon;timestamp;P1;durP1;ratioP1;P2;durP2;ratioP2
5961;SDS011;3007;50.770;0.250;2023-09-18T00:02:21;13.85;;;3.25;;
5961;SDS011;3007;50.770;0.250;2023-09-18T00:04:48;9.82;;;3.53;;
5961;SDS011;3007;50.770;0.250;2023-09-18T00:07:15;7.72;;;3.22;;
5961;SDS011;3007;50.770;0.250;2023-09-18T00:09:42;10.50;;;3.72;;
5961;SDS011;3007;50.770;0.250;2023-09-18T00:12:09;12.57;;;3.85;;
5961;SDS011;3007;50.770;0.250;2023-09-18T00:14:37;14.32;;;4.40;;
5961;SDS011;3007;50.770;0.250;2023-09-18T00:17:04;11.85;;;4.30;;
5961;SDS011;3007;50.770;0.250;2023-09-18T00:19:31;11.90;;;3.47;;
5961;SDS011;3007;50.770;0.250;2023-09-18T00:21:58;9.38;;;4.40;;
5961;SDS011;3007;50.770;0.250;2023-09-18T00:24:26;10.82;;;3.90;;
5961;SDS011;3007;50.770;0.250;2023-09-18T00:26:53;13.25;;;4.00;;
5961;SDS011;3007;50.770;0.250;2023-09-18T00:29:20;9.70;;;3.80;;
5961;SDS011;3007;50.770;0.250;2023-09-18T00:31:48;8.82;;;4.10;;
5961;SDS011;3007;50.770;0.250;2023-09-18T00:34:15;22.55;;;4.43;;
5961;SDS011;3007;50.770;0.250;2023-09-18T00:36:42;22.05;;;5.28;;
5961;SDS011;3007;50.770;0.250;2023-09-18T00:39:09;19.83;;;6.15;;
5961;SDS011;3007;50.770;0.250;2023-09-18T00:41:36;18.73;;;5.20;;
5961;SDS011;3007;50.770;0.250;2023-09-18T00:44:05;18.63;;;5.18;;
5961;SDS011;3007;50.770;0.250;2023-09-18T00:46:32;18.40;;;4.93;;
5961;SDS011;3007;50.770;0.250;2023-09-18T00:49:02;17.63;;;4.82;;
5961;SDS011;3007;50.770;0.250;2023-09-18T00:51:30;19.85;;;5.40;;
5961;SDS011;3007;50.770;0.250;2023-09-18T00:53:58;17.40;;;5.20;;
5961;SDS011;3007;50.770;0.250;2023-09-18T00:56:25;25.85;;;5.80;;
5961;SDS011;3007;50.770;0.250;2023-09-18T00:58:52;23.40;;;6.43;;
5961;SDS011;3007;50.770;0.250;2023-09-18T01:01:20;35.08;;;7.40;;
5961;SDS011;3007;50.770;0.250;2023-09-18T01:03:48;30.98;;;6.82;;
5961;SDS011;3007;50.770;0.250;2023-09-18T01:06:17;30.58;;;6.38;;
5961;SDS011;3007;50.770;0.250;2023-09-18T01:08:45;26.60;;;6.13;;
5961;SDS011;3007;50.770;0.250;2023-09-18T01:11:18;27.02;;;6.00;;
5961;SDS011;3007;50.770;0.250;2023-09-18T01:14:06;19.45;;;4.53;;
5961;SDS011;3007;50.770;0.250;2023-09-18T01:16:39;16.83;;;4.40;;
5961;SDS011;3007;50.770;0.250;2023-09-18T01:19:10;13.07;;;3.83;;
5961;SDS011;3007;50.770;0.250;2023-09-18T01:21:38;16.77;;;4.13;;
5961;SDS011;3007;50.770;0.250;2023-09-18T01:24:07;16.70;;;4.43;;
5961;SDS011;3007;50.770;0.250;2023-09-18T01:26:34;10.73;;;3.85;;
5961;SDS011;3007;50.770;0.250;2023-09-18T01:29:00;13.70;;;3.97;;
5961;SDS011;3007;50.770;0.250;2023-09-18T01:31:28;17.13;;;4.85;;
5961;SDS011;3007;50.770;0.250;2023-09-18T01:33:54;14.20;;;4.07;;
5961;SDS011;3007;50.770;0.250;2023-09-18T01:36:22;14.85;;;3.67;;
5961;SDS011;3007;50.770;0.250;2023-09-18T01:38:52;10.55;;;3.58;;
5961;SDS011;3007;50.770;0.250;2023-09-18T01:41:21;12.80;;;3.75;;
5961;SDS011;3007;50.770;0.250;2023-09-18T01:43:49;13.60;;;3.45;;
5961;SDS011;3007;50.770;0.250;2023-09-18T01:46:16;12.07;;;4.00;;
5961;SDS011;3007;50.770;0.250;2023-09-18T01:48:47;13.05;;;4.15;;
5961;SDS011;3007;50.770;0.250;2023-09-18T01:51:14;17.52;;;4.43;;
5961;SDS011;3007;50.770;0.250;2023-09-18T01:53:41;14.85;;;4.15;;
5961;SDS011;3007;50.770;0.250;2023-09-18T01:56:09;9.57;;;3.10;;
5961;SDS011;3007;50.770;0.250;2023-09-18T01:58:38;15.70;;;4.13;;
5961;SDS011;3007;50.770;0.250;2023-09-18T02:01:04;10.27;;;3.58;;
5961;SDS011;3007;50.770;0.250;2023-09-18T02:03:31;8.73;;;3.30;;
5961;SDS011;3007;50.770;0.250;2023-09-18T02:05:58;8.25;;;3.75;;
5961;SDS011;3007;50.770;0.250;2023-09-18T02:08:25;11.73;;;3.33;;
5961;SDS011;3007;50.770;0.250;2023-09-18T02:10:52;7.55;;;3.58;;
5961;SDS011;3007;50.770;0.250;2023-09-18T02:13:19;11.13;;;2.60;;
5961;SDS011;3007;50.770;0.250;2023-09-18T02:15:47;12.38;;;2.53;;
5961;SDS011;3007;50.770;0.250;2023-09-18T02:18:14;7.95;;;2.65;;
5961;SDS011;3007;50.770;0.250;2023-09-18T02:20:41;5.97;;;2.53;;
5961;SDS011;3007;50.770;0.250;2023-09-18T02:23:09;6.95;;;2.65;;
5961;SDS011;3007;50.770;0.250;2023-09-18T02:25:36;11.82;;;2.70;;
5961;SDS011;3007;50.770;0.250;2023-09-18T02:28:04;11.82;;;3.08;;
5961;SDS011;3007;50.770;0.250;2023-09-18T02:30:31;11.55;;;2.75;;
5961;SDS011;3007;50.770;0.250;2023-09-18T02:32:59;8.75;;;2.90;;
5961;SDS011;3007;50.770;0.250;2023-09-18T02:35:28;6.75;;;3.00;;
5961;SDS011;3007;50.770;0.250;2023-09-18T02:37:55;10.85;;;3.28;;
5961;SDS011;3007;50.770;0.250;2023-09-18T02:40:22;7.63;;;2.90;;
5961;SDS011;3007;50.770;0.250;2023-09-18T02:42:49;11.55;;;3.33;;
5961;SDS011;3007;50.770;0.250;2023-09-18T02:45:16;10.95;;;4.20;;
5961;SDS011;3007;50.770;0.250;2023-09-18T02:47:42;11.03;;;3.33;;
5961;SDS011;3007;50.770;0.250;2023-09-18T02:50:11;8.32;;;3.20;;
5961;SDS011;3007;50.770;0.250;2023-09-18T02:52:37;10.32;;;3.00;;
5961;SDS011;3007;50.770;0.250;2023-09-18T02:55:04;7.72;;;3.40;;
5961;SDS011;3007;50.770;0.250;2023-09-18T02:57:31;7.72;;;2.67;;
5961;SDS011;3007;50.770;0.250;2023-09-18T02:59:58;8.82;;;3.15;;
5961;SDS011;3007;50.770;0.250;2023-09-18T03:02:25;10.27;;;3.33;;
5961;SDS011;3007;50.770;0.250;2023-09-18T03:04:52;6.43;;;2.65;;
5961;SDS011;3007;50.770;0.250;2023-09-18T03:07:20;6.55;;;3.05;;
5961;SDS011;3007;50.770;0.250;2023-09-18T03:09:47;9.37;;;2.67;;
5961;SDS011;3007;50.770;0.250;2023-09-18T03:12:14;7.13;;;2.90;;
5961;SDS011;3007;50.770;0.250;2023-09-18T03:14:41;7.03;;;2.80;;
5961;SDS011;3007;50.770;0.250;2023-09-18T03:17:08;10.77;;;2.80;;
5961;SDS011;3007;50.770;0.250;2023-09-18T03:19:35;10.43;;;3.30;;
5961;SDS011;3007;50.770;0.250;2023-09-18T03:22:02;8.27;;;3.00;;
5961;SDS011;3007;50.770;0.250;2023-09-18T03:24:30;11.73;;;3.07;;
5961;SDS011;3007;50.770;0.250;2023-09-18T03:26:57;7.53;;;2.45;;
5961;SDS011;3007;50.770;0.250;2023-09-18T03:29:24;9.98;;;3.15;;
5961;SDS011;3007;50.770;0.250;2023-09-18T03:31:51;8.33;;;2.70;;
5961;SDS011;3007;50.770;0.250;2023-09-18T03:34:18;8.38;;;2.65;;
5961;SDS011;3007;50.770;0.250;2023-09-18T03:36:45;10.52;;;3.05;;
5961;SDS011;3007;50.770;0.250;2023-09-18T03:39:12;9.73;;;2.72;;
5961;SDS011;3007;50.770;0.250;2023-09-18T03:41:39;12.23;;;2.93;;
5961;SDS011;3007;50.770;0.250;2023-09-18T03:44:06;13.53;;;3.60;;
5961;SDS011;3007;50.770;0.250;2023-09-18T03:46:33;7.88;;;2.95;;
5961;SDS011;3007;50.770;0.250;2023-09-18T03:48:59;9.02;;;2.40;;
5961;SDS011;3007;50.770;0.250;2023-09-18T03:51:26;10.10;;;2.77;;
5961;SDS011;3007;50.770;0.250;2023-09-18T03:53:54;6.68;;;2.33;;
5961;SDS011;3007;50.770;0.250;2023-09-18T03:56:21;7.32;;;2.53;;
5961;SDS011;3007;50.770;0.250;2023-09-18T03:58:49;13.30;;;3.63;;
5961;SDS011;3007;50.770;0.250;2023-09-18T04:01:16;13.43;;;3.13;;
5961;SDS011;3007;50.770;0.250;2023-09-18T04:03:43;8.83;;;3.03;;
5961;SDS011;3007;50.770;0.250;2023-09-18T04:06:10;13.00;;;3.13;;
5961;SDS011;3007;50.770;0.250;2023-09-18T04:08:37;12.05;;;3.28;;
5961;SDS011;3007;50.770;0.250;2023-09-18T04:11:03;9.63;;;2.83;;
5961;SDS011;3007;50.770;0.250;2023-09-18T04:13:34;5.70;;;2.43;;
5961;SDS011;3007;50.770;0.250;2023-09-18T04:16:04;10.85;;;2.53;;
5961;SDS011;3007;50.770;0.250;2023-09-18T04:18:31;6.82;;;2.33;;
5961;SDS011;3007;50.770;0.250;2023-09-18T04:20:58;12.97;;;3.27;;
5961;SDS011;3007;50.770;0.250;2023-09-18T04:23:25;7.63;;;2.43;;
5961;SDS011;3007;50.770;0.250;2023-09-18T04:25:53;10.10;;;2.53;;
5961;SDS011;3007;50.770;0.250;2023-09-18T04:28:21;11.18;;;3.85;;
5961;SDS011;3007;50.770;0.250;2023-09-18T04:30:48;6.57;;;2.42;;
5961;SDS011;3007;50.770;0.250;2023-09-18T04:33:16;8.07;;;3.10;;
5961;SDS011;3007;50.770;0.250;2023-09-18T04:35:43;6.15;;;2.50;;
5961;SDS011;3007;50.770;0.250;2023-09-18T04:38:10;12.90;;;3.13;;
5961;SDS011;3007;50.770;0.250;2023-09-18T04:40:39;11.73;;;3.55;;
5961;SDS011;3007;50.770;0.250;2023-09-18T04:43:06;10.70;;;3.47;;
5961;SDS011;3007;50.770;0.250;2023-09-18T04:45:33;8.90;;;3.23;;
5961;SDS011;3007;50.770;0.250;2023-09-18T04:48:01;10.38;;;3.10;;
5961;SDS011;3007;50.770;0.250;2023-09-18T04:50:32;14.77;;;4.05;;
5961;SDS011;3007;50.770;0.250;2023-09-18T04:53:00;17.23;;;4.72;;
5961;SDS011;3007;50.770;0.250;2023-09-18T04:55:26;16.73;;;4.28;;
5961;SDS011;3007;50.770;0.250;2023-09-18T04:57:53;15.10;;;4.05;;
5961;SDS011;3007;50.770;0.250;2023-09-18T05:00:20;14.25;;;3.65;;
5961;SDS011;3007;50.770;0.250;2023-09-18T05:02:50;17.83;;;4.75;;
5961;SDS011;3007;50.770;0.250;2023-09-18T05:05:17;19.58;;;4.88;;
5961;SDS011;3007;50.770;0.250;2023-09-18T05:07:45;19.10;;;5.40;;
5961;SDS011;3007;50.770;0.250;2023-09-18T05:10:12;15.65;;;4.43;;
5961;SDS011;3007;50.770;0.250;2023-09-18T05:12:39;17.77;;;4.50;;
5961;SDS011;3007;50.770;0.250;2023-09-18T05:15:07;18.00;;;4.55;;
5961;SDS011;3007;50.770;0.250;2023-09-18T05:17:41;16.40;;;4.38;;
5961;SDS011;3007;50.770;0.250;2023-09-18T05:20:10;15.95;;;4.60;;
5961;SDS011;3007;50.770;0.250;2023-09-18T05:22:40;16.45;;;4.05;;
5961;SDS011;3007;50.770;0.250;2023-09-18T05:25:09;12.55;;;4.22;;
5961;SDS011;3007;50.770;0.250;2023-09-18T05:27:36;13.68;;;4.22;;
5961;SDS011;3007;50.770;0.250;2023-09-18T05:30:09;14.30;;;4.72;;
5961;SDS011;3007;50.770;0.250;2023-09-18T05:32:38;10.77;;;4.28;;
5961;SDS011;3007;50.770;0.250;2023-09-18T05:35:05;16.55;;;4.25;;
5961;SDS011;3007;50.770;0.250;2023-09-18T05:37:35;19.05;;;4.60;;
5961;SDS011;3007;50.770;0.250;2023-09-18T05:40:02;18.70;;;4.50;;
5961;SDS011;3007;50.770;0.250;2023-09-18T05:42:32;12.15;;;4.28;;
5961;SDS011;3007;50.770;0.250;2023-09-18T05:44:59;13.05;;;4.57;;
5961;SDS011;3007;50.770;0.250;2023-09-18T05:47:26;17.20;;;4.88;;
5961;SDS011;3007;50.770;0.250;2023-09-18T05:49:54;11.52;;;4.10;;
5961;SDS011;3007;50.770;0.250;2023-09-18T05:52:22;13.77;;;4.70;;
5961;SDS011;3007;50.770;0.250;2023-09-18T05:54:50;15.20;;;4.53;;
5961;SDS011;3007;50.770;0.250;2023-09-18T05:57:17;15.48;;;4.57;;
5961;SDS011;3007;50.770;0.250;2023-09-18T05:59:45;14.25;;;4.70;;
5961;SDS011;3007;50.770;0.250;2023-09-18T06:02:13;15.60;;;4.97;;
5961;SDS011;3007;50.770;0.250;2023-09-18T06:04:41;12.80;;;4.65;;
5961;SDS011;3007;50.770;0.250;2023-09-18T06:07:08;14.68;;;4.88;;
5961;SDS011;3007;50.770;0.250;2023-09-18T06:09:35;12.18;;;4.68;;
5961;SDS011;3007;50.770;0.250;2023-09-18T06:12:02;15.05;;;4.80;;
5961;SDS011;3007;50.770;0.250;2023-09-18T06:14:30;13.15;;;4.22;;
5961;SDS011;3007;50.770;0.250;2023-09-18T06:16:58;14.82;;;4.70;;
5961;SDS011;3007;50.770;0.250;2023-09-18T06:19:25;16.17;;;4.95;;
5961;SDS011;3007;50.770;0.250;2023-09-18T06:21:51;16.23;;;4.68;;
5961;SDS011;3007;50.770;0.250;2023-09-18T06:24:18;14.77;;;4.45;;
5961;SDS011;3007;50.770;0.250;2023-09-18T06:26:45;13.23;;;4.45;;
5961;SDS011;3007;50.770;0.250;2023-09-18T06:29:12;12.68;;;4.60;;
5961;SDS011;3007;50.770;0.250;2023-09-18T06:31:39;13.43;;;4.57;;
5961;SDS011;3007;50.770;0.250;2023-09-18T06:34:07;14.57;;;4.95;;
5961;SDS011;3007;50.770;0.250;2023-09-18T06:36:34;16.15;;;4.68;;
5961;SDS011;3007;50.770;0.250;2023-09-18T06:39:01;13.98;;;5.18;;
5961;SDS011;3007;50.770;0.250;2023-09-18T06:41:30;12.57;;;4.38;;
5961;SDS011;3007;50.770;0.250;2023-09-18T06:43:57;11.52;;;3.78;;
5961;SDS011;3007;50.770;0.250;2023-09-18T06:46:24;13.55;;;4.32;;
5961;SDS011;3007;50.770;0.250;2023-09-18T06:48:51;12.50;;;3.78;;
5961;SDS011;3007;50.770;0.250;2023-09-18T06:51:19;9.43;;;3.55;;
5961;SDS011;3007;50.770;0.250;2023-09-18T06:53:46;7.38;;;3.00;;
5961;SDS011;3007;50.770;0.250;2023-09-18T06:56:13;8.60;;;3.13;;
5961;SDS011;3007;50.770;0.250;2023-09-18T06:58:40;7.15;;;3.25;;
5961;SDS011;3007;50.770;0.250;2023-09-18T07:01:07;9.02;;;2.85;;
5961;SDS011;3007;50.770;0.250;2023-09-18T07:03:35;7.53;;;2.58;;
5961;SDS011;3007;50.770;0.250;2023-09-18T07:06:02;12.48;;;2.53;;
5961;SDS011;3007;50.770;0.250;2023-09-18T07:08:31;8.20;;;2.70;;
5961;SDS011;3007;50.770;0.250;2023-09-18T07:10:57;9.65;;;2.58;;
5961;SDS011;3007;50.770;0.250;2023-09-18T07:13:24;7.72;;;2.53;;
5961;SDS011;3007;50.770;0.250;2023-09-18T07:15:51;5.93;;;2.22;;
5961;SDS011;3007;50.770;0.250;2023-09-18T07:18:18;9.65;;;2.60;;
5961;SDS011;3007;50.770;0.250;2023-09-18T07:20:45;5.68;;;2.28;;
5961;SDS011;3007;50.770;0.250;2023-09-18T07:23:12;8.68;;;2.33;;
5961;SDS011;3007;50.770;0.250;2023-09-18T07:25:40;10.63;;;2.40;;
5961;SDS011;3007;50.770;0.250;2023-09-18T07:28:08;4.60;;;2.13;;
5961;SDS011;3007;50.770;0.250;2023-09-18T07:30:40;8.38;;;2.10;;
5961;SDS011;3007;50.770;0.250;2023-09-18T07:33:08;8.57;;;2.70;;
5961;SDS011;3007;50.770;0.250;2023-09-18T07:35:35;10.63;;;2.75;;
5961;SDS011;3007;50.770;0.250;2023-09-18T07:38:03;7.93;;;2.47;;
5961;SDS011;3007;50.770;0.250;2023-09-18T07:40:30;7.43;;;2.63;;
5961;SDS011;3007;50.770;0.250;2023-09-18T07:42:58;10.80;;;2.60;;
5961;SDS011;3007;50.770;0.250;2023-09-18T07:45:25;5.57;;;2.30;;
5961;SDS011;3007;50.770;0.250;2023-09-18T07:47:52;9.05;;;3.22;;
5961;SDS011;3007;50.770;0.250;2023-09-18T07:50:19;8.82;;;2.38;;
5961;SDS011;3007;50.770;0.250;2023-09-18T07:52:46;8.68;;;2.90;;
5961;SDS011;3007;50.770;0.250;2023-09-18T07:55:13;6.28;;;2.30;;
5961;SDS011;3007;50.770;0.250;2023-09-18T07:57:40;10.38;;;2.53;;
5961;SDS011;3007;50.770;0.250;2023-09-18T08:00:08;4.47;;;1.95;;
5961;SDS011;3007;50.770;0.250;2023-09-18T08:02:38;9.55;;;2.72;;
5961;SDS011;3007;50.770;0.250;2023-09-18T08:05:05;11.77;;;2.70;;
5961;SDS011;3007;50.770;0.250;2023-09-18T08:07:33;9.02;;;2.75;;
5961;SDS011;3007;50.770;0.250;2023-09-18T08:10:01;5.85;;;1.92;;
5961;SDS011;3007;50.770;0.250;2023-09-18T08:12:33;10.10;;;2.85;;
5961;SDS011;3007;50.770;0.250;2023-09-18T08:15:00;9.07;;;2.30;;
5961;SDS011;3007;50.770;0.250;2023-09-18T08:17:29;8.27;;;2.53;;
5961;SDS011;3007;50.770;0.250;2023-09-18T08:19:56;10.18;;;2.20;;
5961;SDS011;3007;50.770;0.250;2023-09-18T08:22:23;9.82;;;2.40;;
5961;SDS011;3007;50.770;0.250;2023-09-18T08:24:50;8.23;;;2.50;;
5961;SDS011;3007;50.770;0.250;2023-09-18T08:27:18;6.28;;;2.38;;
5961;SDS011;3007;50.770;0.250;2023-09-18T08:29:45;8.13;;;2.58;;
5961;SDS011;3007;50.770;0.250;2023-09-18T08:32:12;12.98;;;2.88;;
5961;SDS011;3007;50.770;0.250;2023-09-18T08:34:41;7.18;;;2.38;;
5961;SDS011;3007;50.770;0.250;2023-09-18T08:37:10;6.75;;;2.40;;
5961;SDS011;3007;50.770;0.250;2023-09-18T08:39:38;13.07;;;3.13;;
5961;SDS011;3007;50.770;0.250;2023-09-18T08:42:05;9.35;;;3.10;;
5961;SDS011;3007;50.770;0.250;2023-09-18T08:44:35;16.23;;;4.18;;
5961;SDS011;3007;50.770;0.250;2023-09-18T08:47:05;10.73;;;3.40;;
5961;SDS011;3007;50.770;0.250;2023-09-18T08:49:34;10.07;;;2.80;;
5961;SDS011;3007;50.770;0.250;2023-09-18T08:52:04;8.88;;;2.80;;
5961;SDS011;3007;50.770;0.250;2023-09-18T08:54:32;16.70;;;3.50;;
5961;SDS011;3007;50.770;0.250;2023-09-18T08:56:59;13.02;;;3.42;;
5961;SDS011;3007;50.770;0.250;2023-09-18T08:59:26;10.18;;;3.20;;
5961;SDS011;3007;50.770;0.250;2023-09-18T09:01:54;10.38;;;4.43;;
5961;SDS011;3007;50.770;0.250;2023-09-18T09:04:20;8.18;;;3.60;;
5961;SDS011;3007;50.770;0.250;2023-09-18T09:06:48;12.95;;;3.58;;
5961;SDS011;3007;50.770;0.250;2023-09-18T09:09:16;14.32;;;3.70;;
5961;SDS011;3007;50.770;0.250;2023-09-18T09:11:47;10.73;;;4.10;;
5961;SDS011;3007;50.770;0.250;2023-09-18T09:14:15;9.40;;;4.10;;
5961;SDS011;3007;50.770;0.250;2023-09-18T09:16:46;11.50;;;4.40;;
5961;SDS011;3007;50.770;0.250;2023-09-18T09:19:15;15.38;;;4.72;;
5961;SDS011;3007;50.770;0.250;2023-09-18T09:21:42;14.30;;;5.25;;
5961;SDS011;3007;50.770;0.250;2023-09-18T09:24:10;16.75;;;4.68;;
5961;SDS011;3007;50.770;0.250;2023-09-18T09:26:40;17.15;;;5.40;;
5961;SDS011;3007;50.770;0.250;2023-09-18T09:29:14;18.17;;;5.25;;
5961;SDS011;3007;50.770;0.250;2023-09-18T09:31:43;15.70;;;4.80;;
5961;SDS011;3007;50.770;0.250;2023-09-18T09:34:10;6.80;;;3.00;;
5961;SDS011;3007;50.770;0.250;2023-09-18T09:36:50;6.78;;;3.42;;
5961;SDS011;3007;50.770;0.250;2023-09-18T09:39:18;8.32;;;3.35;;
5961;SDS011;3007;50.770;0.250;2023-09-18T09:41:48;6.88;;;3.38;;
5961;SDS011;3007;50.770;0.250;2023-09-18T09:44:15;10.60;;;4.00;;
5961;SDS011;3007;50.770;0.250;2023-09-18T09:46:45;9.20;;;4.03;;
5961;SDS011;3007;50.770;0.250;2023-09-18T09:49:12;9.80;;;3.85;;
5961;SDS011;3007;50.770;0.250;2023-09-18T09:51:40;12.48;;;3.95;;
5961;SDS011;3007;50.770;0.250;2023-09-18T09:54:08;13.02;;;4.35;;
5961;SDS011;3007;50.770;0.250;2023-09-18T09:56:40;10.63;;;3.80;;
5961;SDS011;3007;50.770;0.250;2023-09-18T09:59:10;13.88;;;4.00;;
5961;SDS011;3007;50.770;0.250;2023-09-18T10:01:39;18.20;;;4.93;;
5961;SDS011;3007;50.770;0.250;2023-09-18T10:04:09;10.95;;;3.92;;
5961;SDS011;3007;50.770;0.250;2023-09-18T10:06:39;13.40;;;4.10;;
5961;SDS011;3007;50.770;0.250;2023-09-18T10:09:09;11.35;;;3.20;;
5961;SDS011;3007;50.770;0.250;2023-09-18T10:11:40;12.20;;;3.42;;
5961;SDS011;3007;50.770;0.250;2023-09-18T10:14:12;13.23;;;4.78;;
5961;SDS011;3007;50.770;0.250;2023-09-18T10:16:41;12.70;;;3.65;;
5961;SDS011;3007;50.770;0.250;2023-09-18T10:19:14;13.93;;;3.53;;
5961;SDS011;3007;50.770;0.250;2023-09-18T10:21:50;16.45;;;3.92;;
5961;SDS011;3007;50.770;0.250;2023-09-18T10:24:25;18.30;;;4.57;;
5961;SDS011;3007;50.770;0.250;2023-09-18T10:26:58;17.20;;;4.22;;
5961;SDS011;3007;50.770;0.250;2023-09-18T10:29:27;12.52;;;4.00;;
5961;SDS011;3007;50.770;0.250;2023-09-18T10:31:55;21.63;;;4.68;;
5961;SDS011;3007;50.770;0.250;2023-09-18T10:34:23;17.17;;;4.32;;
5961;SDS011;3007;50.770;0.250;2023-09-18T10:36:51;16.35;;;4.47;;
5961;SDS011;3007;50.770;0.250;2023-09-18T10:39:19;20.50;;;4.18;;
5961;SDS011;3007;50.770;0.250;2023-09-18T10:41:50;17.50;;;4.43;;
5961;SDS011;3007;50.770;0.250;2023-09-18T10:44:18;14.85;;;3.83;;
5961;SDS011;3007;50.770;0.250;2023-09-18T10:46:47;16.23;;;4.07;;
5961;SDS011;3007;50.770;0.250;2023-09-18T10:49:15;21.15;;;5.38;;
5961;SDS011;3007;50.770;0.250;2023-09-18T10:51:42;16.73;;;3.83;;
5961;SDS011;3007;50.770;0.250;2023-09-18T10:54:09;16.42;;;4.35;;
5961;SDS011;3007;50.770;0.250;2023-09-18T10:56:37;17.30;;;4.93;;
5961;SDS011;3007;50.770;0.250;2023-09-18T10:59:06;21.05;;;5.43;;
5961;SDS011;3007;50.770;0.250;2023-09-18T11:01:34;18.77;;;5.25;;
5961;SDS011;3007;50.770;0.250;2023-09-18T11:04:04;20.83;;;5.57;;
5961;SDS011;3007;50.770;0.250;2023-09-18T11:09:29;24.10;;;5.43;;
5961;SDS011;3007;50.770;0.250;2023-09-18T11:12:02;19.98;;;5.35;;
5961;SDS011;3007;50.770;0.250;2023-09-18T11:14:40;24.88;;;6.00;;
5961;SDS011;3007;50.770;0.250;2023-09-18T11:20:02;18.10;;;4.93;;
5961;SDS011;3007;50.770;0.250;2023-09-18T11:22:31;25.77;;;6.38;;
5961;SDS011;3007;50.770;0.250;2023-09-18T11:27:56;25.65;;;6.10;;
5961;SDS011;3007;50.770;0.250;2023-09-18T11:30:23;24.63;;;5.40;;
5961;SDS011;3007;50.770;0.250;2023-09-18T11:32:51;22.60;;;5.97;;
5961;SDS011;3007;50.770;0.250;2023-09-18T11:35:20;25.67;;;5.65;;
5961;SDS011;3007;50.770;0.250;2023-09-18T11:37:47;17.35;;;4.53;;
5961;SDS011;3007;50.770;0.250;2023-09-18T11:40:29;24.02;;;5.10;;
5961;SDS011;3007;50.770;0.250;2023-09-18T11:45:52;24.85;;;5.07;;
5961;SDS011;3007;50.770;0.250;2023-09-18T11:48:20;18.30;;;4.38;;
5961;SDS011;3007;50.770;0.250;2023-09-18T11:50:52;21.45;;;4.47;;
5961;SDS011;3007;50.770;0.250;2023-09-18T11:53:20;20.02;;;5.47;;
5961;SDS011;3007;50.770;0.250;2023-09-18T11:55:47;20.45;;;4.93;;
5961;SDS011;3007;50.770;0.250;2023-09-18T11:58:14;20.10;;;5.43;;
5961;SDS011;3007;50.770;0.250;2023-09-18T12:00:41;24.20;;;5.50;;
5961;SDS011;3007;50.770;0.250;2023-09-18T12:03:15;22.40;;;5.15;;
5961;SDS011;3007;50.770;0.250;2023-09-18T12:05:53;25.55;;;6.03;;
5961;SDS011;3007;50.770;0.250;2023-09-18T12:08:22;19.98;;;5.13;;
5961;SDS011;3007;50.770;0.250;2023-09-18T12:10:51;19.98;;;5.00;;
5961;SDS011;3007;50.770;0.250;2023-09-18T12:13:19;14.90;;;4.47;;
5961;SDS011;3007;50.770;0.250;2023-09-18T12:15:46;16.38;;;3.88;;
5961;SDS011;3007;50.770;0.250;2023-09-18T12:18:14;16.35;;;3.83;;
5961;SDS011;3007;50.770;0.250;2023-09-18T12:20:45;14.40;;;4.20;;
5961;SDS011;3007;50.770;0.250;2023-09-18T12:23:14;13.15;;;3.33;;
5961;SDS011;3007;50.770;0.250;2023-09-18T12:25:45;14.68;;;4.15;;
5961;SDS011;3007;50.770;0.250;2023-09-18T12:28:20;14.90;;;3.75;;
5961;SDS011;3007;50.770;0.250;2023-09-18T12:30:46;18.65;;;4.45;;
5961;SDS011;3007;50.770;0.250;2023-09-18T12:33:20;20.38;;;4.13;;
5961;SDS011;3007;50.770;0.250;2023-09-18T12:35:48;14.65;;;3.80;;
5961;SDS011;3007;50.770;0.250;2023-09-18T12:38:18;18.65;;;4.18;;
5961;SDS011;3007;50.770;0.250;2023-09-18T12:40:49;12.50;;;3.38;;
5961;SDS011;3007;50.770;0.250;2023-09-18T12:43:17;13.25;;;3.92;;
5961;SDS011;3007;50.770;0.250;2023-09-18T12:45:49;15.98;;;3.67;;
5961;SDS011;3007;50.770;0.250;2023-09-18T12:48:17;19.35;;;4.63;;
5961;SDS011;3007;50.770;0.250;2023-09-18T12:50:46;16.05;;;4.00;;
5961;SDS011;3007;50.770;0.250;2023-09-18T12:53:21;17.38;;;4.55;;
5961;SDS011;3007;50.770;0.250;2023-09-18T12:55:49;16.27;;;3.97;;
5961;SDS011;3007;50.770;0.250;2023-09-18T12:58:18;13.20;;;3.67;;
5961;SDS011;3007;50.770;0.250;2023-09-18T13:00:47;13.27;;;3.72;;
5961;SDS011;3007;50.770;0.250;2023-09-18T13:03:15;12.80;;;2.97;;
5961;SDS011;3007;50.770;0.250;2023-09-18T13:05:43;16.35;;;4.25;;
5961;SDS011;3007;50.770;0.250;2023-09-18T13:08:12;13.40;;;3.88;;
5961;SDS011;3007;50.770;0.250;2023-09-18T13:10:44;14.68;;;3.83;;
5961;SDS011;3007;50.770;0.250;2023-09-18T13:13:15;18.95;;;4.25;;
5961;SDS011;3007;50.770;0.250;2023-09-18T13:15:43;16.85;;;4.45;;
5961;SDS011;3007;50.770;0.250;2023-09-18T13:18:11;21.15;;;3.90;;
5961;SDS011;3007;50.770;0.250;2023-09-18T13:20:38;14.75;;;3.25;;
5961;SDS011;3007;50.770;0.250;2023-09-18T13:23:06;15.73;;;3.88;;
5961;SDS011;3007;50.770;0.250;2023-09-18T13:25:34;10.35;;;3.47;;
5961;SDS011;3007;50.770;0.250;2023-09-18T13:28:05;14.93;;;3.67;;
5961;SDS011;3007;50.770;0.250;2023-09-18T13:30:32;12.85;;;3.53;;
5961;SDS011;3007;50.770;0.250;2023-09-18T13:33:04;15.32;;;4.22;;
5961;SDS011;3007;50.770;0.250;2023-09-18T13:35:32;14.82;;;3.78;;
5961;SDS011;3007;50.770;0.250;2023-09-18T13:37:59;12.02;;;3.40;;
5961;SDS011;3007;50.770;0.250;2023-09-18T13:40:27;12.68;;;3.67;;
5961;SDS011;3007;50.770;0.250;2023-09-18T13:42:54;12.32;;;3.42;;
5961;SDS011;3007;50.770;0.250;2023-09-18T13:45:22;10.00;;;3.05;;
5961;SDS011;3007;50.770;0.250;2023-09-18T13:47:50;12.05;;;3.72;;
5961;SDS011;3007;50.770;0.250;2023-09-18T13:50:16;12.75;;;3.28;;
5961;SDS011;3007;50.770;0.250;2023-09-18T13:52:43;14.15;;;3.88;;
5961;SDS011;3007;50.770;0.250;2023-09-18T13:55:10;15.73;;;3.92;;
5961;SDS011;3007;50.770;0.250;2023-09-18T13:57:37;8.10;;;2.95;;
5961;SDS011;3007;50.770;0.250;2023-09-18T14:00:06;13.00;;;3.55;;
5961;SDS011;3007;50.770;0.250;2023-09-18T14:02:36;14.07;;;3.30;;
5961;SDS011;3007;50.770;0.250;2023-09-18T14:05:03;13.30;;;3.35;;
5961;SDS011;3007;50.770;0.250;2023-09-18T14:07:34;12.55;;;3.10;;
5961;SDS011;3007;50.770;0.250;2023-09-18T14:10:01;11.02;;;2.90;;
5961;SDS011;3007;50.770;0.250;2023-09-18T14:12:29;13.18;;;3.10;;
5961;SDS011;3007;50.770;0.250;2023-09-18T14:14:56;13.18;;;3.45;;
5961;SDS011;3007;50.770;0.250;2023-09-18T14:17:24;10.70;;;3.00;;
5961;SDS011;3007;50.770;0.250;2023-09-18T14:19:53;13.30;;;3.22;;
5961;SDS011;3007;50.770;0.250;2023-09-18T14:22:19;11.55;;;3.38;;
5961;SDS011;3007;50.770;0.250;2023-09-18T14:24:46;9.40;;;3.20;;
5961;SDS011;3007;50.770;0.250;2023-09-18T14:27:13;10.30;;;3.35;;
5961;SDS011;3007;50.770;0.250;2023-09-18T14:29:40;14.60;;;3.70;;
5961;SDS011;3007;50.770;0.250;2023-09-18T14:32:07;11.68;;;3.38;;
5961;SDS011;3007;50.770;0.250;2023-09-18T14:34:34;12.40;;;4.07;;
5961;SDS011;3007;50.770;0.250;2023-09-18T14:37:02;16.80;;;4.28;;
5961;SDS011;3007;50.770;0.250;2023-09-18T14:39:30;14.05;;;3.88;;
5961;SDS011;3007;50.770;0.250;2023-09-18T14:41:57;16.83;;;3.45;;
5961;SDS011;3007;50.770;0.250;2023-09-18T14:44:25;15.52;;;4.07;;
5961;SDS011;3007;50.770;0.250;2023-09-18T14:46:53;16.48;;;3.97;;
5961;SDS011;3007;50.770;0.250;2023-09-18T14:49:21;14.70;;;3.65;;
5961;SDS011;3007;50.770;0.250;2023-09-18T14:51:48;11.90;;;3.38;;
5961;SDS011;3007;50.770;0.250;2023-09-18T14:54:19;13.20;;;3.65;;
5961;SDS011;3007;50.770;0.250;2023-09-18T14:56:49;15.63;;;3.75;;
5961;SDS011;3007;50.770;0.250;2023-09-18T14:59:16;13.13;;;3.65;;
5961;SDS011;3007;50.770;0.250;2023-09-18T15:01:43;19.92;;;4.13;;
5961;SDS011;3007;50.770;0.250;2023-09-18T15:04:13;13.45;;;4.65;;
5961;SDS011;3007;50.770;0.250;2023-09-18T15:06:39;11.77;;;3.72;;
5961;SDS011;3007;50.770;0.250;2023-09-18T15:09:06;18.88;;;4.63;;
5961;SDS011;3007;50.770;0.250;2023-09-18T15:11:34;21.02;;;4.47;;
5961;SDS011;3007;50.770;0.250;2023-09-18T15:14:01;13.75;;;3.78;;
5961;SDS011;3007;50.770;0.250;2023-09-18T15:16:29;19.33;;;4.80;;
5961;SDS011;3007;50.770;0.250;2023-09-18T15:18:55;16.52;;;4.30;;
5961;SDS011;3007;50.770;0.250;2023-09-18T15:21:25;13.38;;;3.90;;
5961;SDS011;3007;50.770;0.250;2023-09-18T15:23:52;13.38;;;3.90;;